Latest Weather Observations for Cape Bruny AWS

IDT60801

Issued at 8:02 pm EST Monday 25 July 2016 (issued every 30 minutes, with the page automatically refreshed every 10 minutes)

About weather observations | Map of weather stations | Latest weather observations for TAS | Other Formats
Station Details ID: 094198 Name: CAPE BRUNY (CAPE BRUNY) Lat: -43.49 Lon: 147.14 Height: 59.7 m
Data from the previous 72 hours. | See also: Recent months at Cape Bruny AWS
Date/Time
EST
Temp
°C
App
Temp
°C
Dew
Point
°C
Rel
Hum
%
Delta-T
°C
Wind Press
QNH
hPa
Press
MSL
hPa
Rain since
9am
mm
Dir  Spd
km/h
Gust
km/h
Spd
kts
Gust
kts
25/08:00pm 8.6 3.9 5.0 78 1.6 NNE 19 30 10 16 984.9 984.9 0.0
25/07:30pm 9.0 4.8 3.6 69 2.4 NNE 15 24 8 13 985.9 985.9 0.0
25/07:00pm 8.3 4.3 2.8 68 2.4 NE 13 17 7 9 986.9 986.9 0.0
25/06:30pm 8.2 4.7 3.3 71 2.1 NNE 11 22 6 12 987.8 987.8 0.0
25/06:00pm 7.6 4.1 3.3 74 1.9 N 11 15 6 8 988.6 988.6 0.0
25/05:30pm 7.7 3.8 3.4 74 1.8 N 13 22 7 12 989.5 989.5 0.0
25/05:00pm 8.1 4.1 3.0 70 2.2 NNW 13 26 7 14 990.4 990.5 0.0
25/04:30pm 9.0 6.0 4.2 72 2.1 NNE 9 11 5 6 991.2 991.3 0.0
25/04:00pm 10.3 7.0 4.7 68 2.6 NNE 11 17 6 9 991.9 992.0 0.0
25/03:30pm 11.1 8.9 5.4 68 2.6 N 6 7 3 4 992.5 992.6 0.0
25/03:00pm 10.3 7.8 4.9 69 2.5 NNW 7 11 4 6 993.0 993.1 0.0
25/02:30pm 10.3 5.9 4.9 69 2.4 NW 17 26 9 14 993.6 993.7 0.0
25/02:00pm 10.1 5.2 4.0 66 2.7 NW 19 22 10 12 994.0 994.1 0.0
25/01:30pm 10.1 4.2 3.8 65 2.8 NW 24 35 13 19 994.5 994.6 0.0
25/01:23pm 10.1 4.5 3.6 64 2.9 WNW 22 35 12 19 994.5 994.6 0.0
25/01:00pm 10.0 7.5 5.0 71 2.3 NW 7 15 4 8 995.0 995.1 0.0
25/12:30pm 10.1 7.3 5.1 71 2.3 NW 9 13 5 7 995.5 995.6 0.0
25/12:00pm 9.6 6.9 5.6 76 1.8 NNE 9 15 5 8 996.1 996.2 0.0
25/11:30am 9.2 5.7 5.6 78 1.6 NNE 13 19 7 10 996.7 996.8 0.0
25/11:00am 8.9 4.5 4.7 75 1.9 NNE 17 26 9 14 997.1 997.2 0.0
25/10:30am 10.8 8.0 6.9 77 1.9 N 11 17 6 9 997.3 997.4 0.0
25/10:00am 7.6 4.0 4.9 83 1.2 N 13 15 7 8 997.3 997.4 0.0
25/09:30am 8.1 4.2 5.2 82 1.3 NNE 15 22 8 12 997.2 997.3 0.0
25/09:00am 7.0 2.6 4.7 85 1.0 N 17 20 9 11 997.2 997.3 0.0
25/08:30am 6.9 3.3 5.1 88 0.8 N 13 19 7 10 997.4 997.5 0.0
25/08:00am 6.2 1.4 4.7 90 0.7 N 19 24 10 13 997.5 997.6 0.0
25/07:30am 6.0 0.8 3.7 85 1.0 N 20 28 11 15 997.5 997.6 0.0
25/07:00am 5.6 1.4 3.6 87 0.8 N 15 20 8 11 997.4 997.5 0.0
25/06:30am 6.3 1.2 4.1 86 0.9 N 20 24 11 13 997.4 997.5 0.0
25/06:00am 6.2 1.1 3.9 85 1.0 N 20 24 11 13 997.4 997.5 0.0
25/05:30am 6.1 0.6 4.1 87 0.9 N 22 28 12 15 997.6 997.7 0.0
25/05:00am 5.3 0.7 3.5 88 0.8 N 17 20 9 11 997.7 997.8 0.0
25/04:30am 5.7 1.1 3.5 86 0.9 N 17 20 9 11 997.6 997.7 0.0
25/04:00am 5.4 0.4 3.4 87 0.8 N 19 24 10 13 997.6 997.7 0.0
25/03:30am 5.8 0.2 3.5 85 1.0 N 22 28 12 15 997.8 997.9 0.0
25/03:00am 4.7 -0.5 2.6 86 0.9 N 19 24 10 13 998.2 998.3 0.0
25/02:30am 4.5 -0.3 2.4 86 0.8 N 17 20 9 11 998.3 998.4 0.0
25/02:00am 5.0 -0.4 2.5 84 1.0 N 20 30 11 16 998.7 998.8 0.0
25/01:30am 5.2 0.5 3.4 88 0.7 N 17 22 9 12 998.7 998.8 0.0
25/01:00am 5.5 0.5 3.5 87 0.8 N 19 24 10 13 998.8 998.9 0.0
25/12:30am 4.8 0.1 3.1 89 0.7 N 17 20 9 11 999.3 999.4 0.0
25/12:00am 5.0 -0.1 3.3 89 0.7 N 19 22 10 12 999.4 999.5 0.0
 
Date/Time
EST
Temp
°C
App
Temp
°C
Dew
Point
°C
Rel
Hum
%
Delta-T
°C
Wind Press
QNH
hPa
Press
MSL
hPa
Rain since
9am
mm
Dir  Spd
km/h
Gust
km/h
Spd
kts
Gust
kts
24/11:30pm 4.8 0.8 3.0 88 0.7 NNE 13 17 7 9 999.7 999.8 0.0
24/11:00pm 5.2 1.3 3.4 88 0.8 NNE 13 19 7 10 999.9 1000.0 0.0
24/10:30pm 5.1 1.5 3.0 86 0.9 NNE 11 15 6 8 1000.1 1000.2 0.0
24/10:00pm 5.1 1.4 2.6 84 1.0 NNE 11 15 6 8 1000.4 1000.5 0.0
24/09:30pm 5.2 1.6 2.7 84 1.0 N 11 15 6 8 1000.8 1000.9 0.0
24/09:00pm 5.9 0.5 2.5 79 1.4 NNW 20 26 11 14 1000.8 1000.9 0.0
24/08:30pm 5.6 1.1 1.9 77 1.5 N 15 20 8 11 1000.9 1001.0 0.0
24/08:00pm 5.9 0.7 2.4 78 1.4 NNW 19 22 10 12 1001.1 1001.2 0.0
24/07:30pm 5.5 1.4 2.5 81 1.2 N 13 19 7 10 1001.2 1001.3 0.0
24/07:00pm 5.2 0.7 2.2 81 1.2 N 15 19 8 10 1001.4 1001.5 0.0
24/06:30pm 4.9 1.1 1.6 79 1.3 N 11 17 6 9 1001.5 1001.6 0.0
24/06:00pm 6.4 1.5 2.1 74 1.8 NW 17 20 9 11 1001.5 1001.6 0.0
24/05:30pm 6.6 1.1 2.1 73 1.8 NW 20 24 11 13 1001.4 1001.5 0.0
24/05:00pm 6.2 1.7 2.1 75 1.7 NNW 15 19 8 10 1001.3 1001.4 0.0
24/04:30pm 6.9 2.9 2.6 74 1.8 N 13 20 7 11 1001.4 1001.5 0.0
24/04:00pm 6.9 2.9 2.6 74 1.8 N 13 19 7 10 1001.6 1001.7 0.0
24/03:30pm 7.9 3.8 2.4 68 2.3 NNW 13 20 7 11 1001.9 1001.9 0.0
24/03:00pm 8.9 4.5 2.9 66 2.6 NNW 15 20 8 11 1001.7 1001.8 0.0
24/02:30pm 8.2 3.7 2.4 67 2.4 NNW 15 20 8 11 1002.0 1002.0 0.0
24/02:00pm 8.2 3.7 2.4 67 2.4 NNW 15 22 8 12 1002.0 1002.0 0.0
24/01:30pm 8.0 2.6 2.3 67 2.4 NW 20 26 11 14 1002.2 1002.2 0.0
24/01:00pm 8.1 2.0 2.6 68 2.3 NW 24 32 13 17 1002.6 1002.6 0.0
24/12:30pm 7.7 1.5 2.4 69 2.2 NW 24 33 13 18 1002.9 1002.9 0.0
24/12:00pm 7.7 0.7 2.2 68 2.3 NW 28 37 15 20 1003.0 1003.0 0.0
24/11:30am 7.4 0.4 2.1 69 2.2 NW 28 37 15 20 1003.3 1003.3 0.0
24/11:00am 7.4 2.0 2.7 72 2.0 WNW 20 30 11 16 1003.4 1003.4 0.0
24/10:30am 6.9 0.8 2.6 74 1.8 NW 24 30 13 16 1003.6 1003.6 0.0
24/10:00am 6.5 0.3 2.2 74 1.8 NW 24 35 13 19 1003.9 1003.9 0.0
24/09:30am 6.2 0.7 2.1 75 1.7 NW 20 26 11 14 1003.9 1003.9 0.0
24/09:00am 6.1 -0.4 2.4 77 1.5 WNW 26 37 14 20 1003.8 1003.8 6.4
24/08:30am 5.6 0.2 2.6 81 1.2 WNW 20 30 11 16 1003.7 1003.7 6.4
24/08:00am 5.3 -0.1 2.3 81 1.2 WNW 20 30 11 16 1003.8 1003.8 6.4
24/07:30am 4.6 -0.9 1.8 82 1.1 NW 20 26 11 14 1003.3 1003.3 6.4
24/07:00am 4.3 -1.2 1.7 83 1.0 NW 20 26 11 14 1002.9 1002.9 6.4
24/06:30am 4.7 -1.5 2.4 85 0.9 WNW 24 30 13 16 1003.1 1003.1 6.2
24/06:00am 4.9 -1.3 2.3 83 1.1 WNW 24 33 13 18 1002.7 1002.7 6.0
24/05:30am 4.8 -2.9 2.3 84 1.0 NW 32 43 17 23 1002.4 1002.4 6.0
24/05:00am 4.7 -1.5 2.2 84 1.0 WNW 24 35 13 19 1002.8 1002.8 5.8
24/04:30am 4.2 -2.4 1.9 85 0.9 NW 26 32 14 17 1002.8 1002.8 5.8
24/04:00am 4.3 -1.9 2.0 85 0.9 WNW 24 33 13 18 1002.7 1002.7 5.8
24/03:30am 4.4 -3.6 1.9 84 1.0 WNW 33 46 18 25 1002.7 1002.7 5.4
24/03:00am 4.8 -3.1 2.2 83 1.1 WNW 33 44 18 24 1002.4 1002.4 5.0
24/02:30am 5.1 -4.9 2.3 82 1.1 WNW 44 67 24 36 1002.6 1002.6 4.6
24/02:28am 5.3 -4.1 2.5 82 1.1 WNW 41 65 22 35 1002.5 1002.5 4.6
24/02:00am 4.8 -4.5 0.9 76 1.5 WNW 39 50 21 27 1002.5 1002.5 4.6
24/01:30am 4.8 -3.5 2.0 82 1.1 W 35 41 19 22 1002.3 1002.3 4.6
24/01:00am 4.6 -3.7 2.3 85 0.9 W 35 44 19 24 1002.1 1002.1 4.6
24/12:41am 5.4 -5.9 1.5 76 1.6 WNW 50 69 27 37 1001.9 1001.9 4.0
24/12:30am 6.0 -4.1 1.3 72 1.9 W 44 59 24 32 1001.9 1001.9 4.0
24/12:00am 6.0 -5.0 0.8 69 2.1 W 48 57 26 31 1001.7 1001.8 4.0
 
Date/Time
EST
Temp
°C
App
Temp
°C
Dew
Point
°C
Rel
Hum
%
Delta-T
°C
Wind Press
QNH
hPa
Press
MSL
hPa
Rain since
9am
mm
Dir  Spd
km/h
Gust
km/h
Spd
kts
Gust
kts
23/11:30pm 6.1 -5.8 -0.2 64 2.4 W 52 67 28 36 1001.4 1001.5 4.0
23/11:10pm 5.9 -4.2 0.3 67 2.2 W 43 61 23 33 1001.3 1001.4 4.0
23/11:00pm 6.6 -4.1 -0.1 62 2.6 W 46 57 25 31 1001.3 1001.4 4.0
23/10:30pm 6.4 -3.7 0.1 64 2.4 W 43 57 23 31 1000.6 1000.7 4.0
23/10:00pm 4.9 -7.3 0.1 71 1.8 W 54 78 29 42 1000.4 1000.5 4.0
23/09:51pm 4.8 -6.3 -0.2 70 1.9 W 48 76 26 41 1000.5 1000.6 3.8
23/09:30pm 5.1 -6.7 0.1 70 1.9 W 52 67 28 36 1000.0 1000.1 3.8
23/09:24pm 5.3 -8.3 -0.3 67 2.1 W 61 82 33 44 999.9 1000.0 3.8
23/09:02pm 6.3 -5.3 1.6 72 1.9 WSW 52 91 28 49 999.7 999.8 3.8
23/09:01pm 6.4 -4.9 1.1 69 2.1 SW 50 89 27 48 1000.1 1000.2 3.8
23/09:00pm 6.6 -4.0 0.7 66 2.3 SW 46 65 25 35 1000.2 1000.3 3.8
23/08:31pm 6.6 -4.5 0.3 64 2.5 WSW 48 67 26 36 999.8 999.9 3.8
23/08:30pm 6.8 -4.8 -1.1 57 3.0 WSW 50 67 27 36 999.7 999.8 3.8
23/08:04pm 5.2 -6.6 0.2 70 1.9 WSW 52 95 28 51 999.1 999.2 3.8
23/08:01pm 5.8 -5.3 0.2 67 2.2 WSW 48 69 26 37 998.9 999.0 3.8
23/08:00pm 5.6 -5.5 -0.2 66 2.2 WSW 48 65 26 35 998.9 999.0 3.8
23/07:30pm 5.4 -7.2 1.3 75 1.6 WSW 57 87 31 47 998.2 998.3 3.6
23/07:00pm 6.4 -8.5 -1.0 59 2.8 WSW 67 95 36 51 996.7 996.8 3.6
23/06:37pm 5.0 -10.0 0.8 74 1.6 WSW 69 100 37 54 996.2 996.3 3.6
23/06:36pm 4.7 -10.3 0.8 76 1.5 WSW 69 100 37 54 996.3 996.4 3.6
23/06:34pm 4.7 -10.0 -0.1 71 1.8 WSW 67 100 36 54 996.1 996.2 3.4
23/06:33pm 5.2 -9.1 0.4 71 1.9 WSW 65 100 35 54 995.9 996.0 3.2
23/06:32pm 5.8 -8.1 0.2 67 2.2 WSW 63 100 34 54 995.9 996.0 3.2
23/06:30pm 6.8 -6.4 -0.2 61 2.7 WSW 59 82 32 44 996.0 996.1 3.2
23/06:00pm 5.1 -9.1 -1.6 62 2.5 SW 63 91 34 49 995.9 996.0 3.2
23/05:30pm 6.5 -7.8 0.0 63 2.5 WSW 65 85 35 46 994.6 994.7 3.2
23/05:05pm 6.2 -7.8 -0.5 62 2.6 WSW 63 98 34 53 993.9 994.0 3.2
23/05:00pm 5.8 -7.8 -0.5 64 2.4 WSW 61 80 33 43 993.9 994.0 3.2
23/04:37pm 5.8 -6.7 1.7 75 1.6 SW 57 96 31 52 993.2 993.3 3.2
23/04:36pm 5.7 -6.7 1.2 73 1.8 SW 56 96 30 52 993.1 993.2 3.2
23/04:30pm 5.3 -7.4 0.5 71 1.9 SW 57 95 31 51 993.3 993.4 3.2
23/04:27pm 5.2 -9.5 0.2 70 1.9 SW 67 98 36 53 993.3 993.4 3.2
23/04:26pm 5.1 -9.9 0.5 72 1.8 SW 69 98 37 53 993.3 993.4 3.2
23/04:19pm 4.8 -8.8 -0.2 70 1.9 SW 61 98 33 53 993.3 993.4 3.0
23/04:00pm 5.5 -8.6 -0.8 64 2.4 WSW 63 83 34 45 992.4 992.5 3.0
23/03:30pm 4.9 -7.0 1.9 81 1.2 W 54 74 29 40 991.5 991.6 2.8
23/03:00pm 5.0 -8.4 1.1 76 1.6 WSW 61 82 33 44 990.6 990.7 2.8
23/02:30pm 4.0 -10.5 1.4 83 1.0 WSW 67 93 36 50 989.7 989.7 2.4
23/02:28pm 4.6 -9.8 2.1 84 1.0 WSW 67 93 36 50 990.1 990.1 2.4
23/02:25pm 3.9 -11.1 1.6 85 0.9 WSW 70 93 38 50 990.1 990.1 2.4
23/02:18pm 4.0 -9.7 1.4 83 1.0 WSW 63 98 34 53 989.9 989.9 2.2
23/02:16pm 4.0 -8.6 1.2 82 1.1 WSW 57 98 31 53 989.7 989.7 2.2
23/02:14pm 4.2 -7.8 1.7 84 1.0 WSW 54 98 29 53 989.7 989.7 2.2
23/02:08pm 4.0 -8.0 1.7 85 0.9 W 54 72 29 39 990.0 990.0 1.8
23/02:00pm 4.2 -7.9 1.1 80 1.2 W 54 67 29 36 989.2 989.2 1.6
23/01:31pm 4.4 -8.0 1.3 80 1.2 W 56 74 30 40 988.9 988.9 1.6
23/01:30pm 4.5 -8.1 1.5 81 1.2 W 57 74 31 40 988.8 988.8 1.6
23/01:00pm 5.9 -8.3 0.7 69 2.1 WSW 65 87 35 47 988.1 988.1 1.0
23/12:56pm 6.2 -7.0 -0.3 63 2.5 WSW 59 85 32 46 987.9 987.9 1.0
23/12:52pm 6.0 -6.6 -0.1 65 2.3 W 56 80 30 43 988.0 988.0 1.0
23/12:49pm 5.9 -6.1 1.8 75 1.7 W 54 78 29 42 988.0 988.0 1.0
23/12:48pm 5.8 -6.6 1.5 74 1.7 W 56 78 30 42 988.0 988.0 1.0
23/12:30pm 4.7 -9.5 0.8 76 1.5 WSW 65 85 35 46 987.7 987.7 1.0
23/12:20pm 4.7 -9.4 1.4 79 1.3 WSW 65 95 35 51 987.7 987.7 0.8
23/12:06pm 4.4 -9.8 1.1 79 1.3 W 65 95 35 51 987.3 987.3 0.8
23/12:05pm 4.5 -9.4 0.6 76 1.5 W 63 95 34 51 987.3 987.3 0.8
23/12:00pm 5.4 -7.2 1.5 76 1.6 W 57 78 31 42 987.0 987.0 0.8
23/11:34am 5.7 -8.1 1.2 73 1.8 W 63 87 34 47 986.6 986.6 0.6
23/11:30am 6.2 -7.2 1.1 70 2.0 W 61 87 33 47 986.3 986.3 0.6
23/11:02am 5.0 -7.1 -1.4 63 2.4 W 52 70 28 38 986.3 986.3 0.6
23/11:00am 5.1 -7.2 -0.5 67 2.1 W 54 70 29 38 986.3 986.3 0.6
23/10:37am 3.7 -9.0 0.8 81 1.1 W 57 87 31 47 986.5 986.5 0.6
23/10:34am 3.2 -9.9 0.6 83 1.0 W 59 87 32 47 986.4 986.4 0.6
23/10:33am 3.1 -10.0 0.3 82 1.1 W 59 87 32 47 986.4 986.4 0.6
23/10:31am 3.5 -9.7 -0.1 77 1.3 W 59 87 32 47 986.1 986.1 0.4
23/10:30am 4.1 -8.7 -0.1 74 1.6 W 57 87 31 47 986.2 986.2 0.2
23/10:11am 5.4 -7.7 0.6 71 1.9 W 59 78 32 42 986.1 986.1 0.2
23/10:00am 4.8 -8.3 0.6 74 1.6 W 59 76 32 41 986.0 986.0 0.2
23/09:59am 4.6 -8.2 0.4 74 1.6 W 57 76 31 41 986.0 986.0 0.2
23/09:38am 4.2 -7.1 0.9 79 1.3 W 50 80 27 43 985.9 985.9 0.2
23/09:30am 4.2 -7.1 0.9 79 1.3 W 50 65 27 35 986.0 986.0 0.2
23/09:11am 4.2 -6.3 1.6 83 1.0 W 46 82 25 44 985.6 985.6 0.2
23/09:10am 4.3 -5.7 2.0 85 0.9 W 44 82 24 44 985.5 985.5 0.2
23/09:08am 4.2 -5.2 2.1 86 0.8 W 41 67 22 36 985.7 985.7 0.2
23/09:00am 3.6 -6.4 1.3 85 0.9 W 43 54 23 29 985.8 985.8 13.2
23/08:56am 4.1 -5.8 1.8 85 0.9 W 43 56 23 30 985.6 985.6 13.2
23/08:34am 3.4 -5.4 1.4 87 0.8 WNW 37 76 20 41 985.6 985.6 13.0
23/08:32am 3.9 -4.2 1.3 83 1.0 WNW 33 50 18 27 985.6 985.6 12.8
23/08:30am 3.7 -4.4 0.9 82 1.1 WNW 33 44 18 24 985.3 985.3 12.8
23/08:00am 4.1 -6.2 2.6 90 0.6 WNW 46 54 25 29 984.7 984.7 12.6
23/07:45am 3.6 -8.7 2.1 90 0.6 W 56 74 30 40 984.8 984.8 12.6
23/07:39am 3.9 -6.4 2.4 90 0.6 W 46 74 25 40 984.4 984.5 12.2
23/07:36am 4.2 -4.7 2.9 91 0.5 W 39 59 21 32 984.7 984.7 12.2
23/07:30am 3.6 -4.3 2.3 91 0.5 W 33 44 18 24 984.4 984.5 12.2
23/07:00am 3.0 -6.1 1.7 91 0.5 W 39 48 21 26 984.2 984.3 11.8
23/06:55am 3.2 -5.9 2.0 92 0.5 W 39 57 21 31 984.3 984.4 11.8
23/06:45am 2.9 -10.8 1.7 92 0.5 W 63 89 34 48 984.4 984.5 11.8
23/06:43am 2.7 -11.8 1.5 92 0.5 W 67 89 36 48 984.4 984.5 11.6
23/06:38am 2.9 -9.7 1.4 90 0.6 W 57 89 31 48 984.0 984.1 11.4
23/06:35am 3.9 -7.2 2.6 91 0.5 W 50 72 27 39 984.0 984.1 11.0
23/06:30am 3.9 -6.8 2.7 92 0.5 W 48 61 26 33 983.7 983.8 10.8
23/06:11am 3.7 -7.1 2.1 89 0.6 W 48 72 26 39 983.4 983.5 10.4
23/06:00am 3.6 -8.9 1.8 88 0.7 W 57 83 31 45 983.3 983.4 10.0
23/05:46am 4.5 -6.8 3.2 91 0.5 WSW 52 70 28 38 982.9 983.0 9.4
23/05:30am 4.5 -7.2 3.2 91 0.5 W 54 65 29 35 982.6 982.7 9.0
23/05:00am 3.8 -5.2 2.6 92 0.5 W 39 57 21 31 982.2 982.3 8.6
23/04:58am 3.9 -4.3 2.9 93 0.4 W 35 56 19 30 982.3 982.4 8.6
23/04:30am 3.7 -6.7 2.2 90 0.6 WNW 46 59 25 32 982.3 982.4 6.4
23/04:19am 3.9 -5.6 1.9 87 0.8 WNW 41 65 22 35 981.8 981.9 5.2
23/04:00am 4.4 -3.5 2.4 87 0.8 WNW 33 46 18 25 981.5 981.6 4.8
23/03:42am 4.6 -4.4 2.3 85 0.9 WNW 39 57 21 31 981.6 981.7 4.6
23/03:30am 4.7 -3.6 2.4 85 0.9 NW 35 46 19 25 981.7 981.8 4.6
23/03:09am 6.1 -0.9 1.8 74 1.7 NW 28 54 15 29 981.8 981.9 4.2
23/03:00am 6.3 0.8 2.0 74 1.8 WNW 20 30 11 16 981.8 981.9 4.2
23/02:30am 6.3 0.7 1.4 71 2.0 NNW 20 33 11 18 982.0 982.1 4.2
23/02:00am 5.7 0.7 1.4 74 1.7 N 17 28 9 15 982.2 982.3 4.2
23/01:30am 6.2 1.9 1.1 70 2.0 NNW 13 22 7 12 982.7 982.8 4.2
23/01:22am 6.2 -0.9 1.3 71 2.0 NW 28 46 15 25 982.8 982.9 4.2
23/01:09am 6.1 0.7 1.1 70 2.0 NW 19 41 10 22 982.8 982.9 4.2
23/01:00am 5.5 0.8 0.7 71 1.9 NNW 15 24 8 13 982.9 983.0 4.2
23/12:30am 5.6 0.2 1.3 74 1.7 WNW 19 28 10 15 983.5 983.6 4.2
23/12:00am 6.3 0.7 1.2 70 2.1 NW 20 35 11 19 983.5 983.6 4.2
 
Date/Time
EST
Temp
°C
App
Temp
°C
Dew
Point
°C
Rel
Hum
%
Delta-T
°C
Wind Press
QNH
hPa
Press
MSL
hPa
Rain since
9am
mm
Dir  Spd
km/h
Gust
km/h
Spd
kts
Gust
kts
22/11:30pm 6.5 0.3 2.2 74 1.8 WNW 24 32 13 17 983.9 984.0 4.2
22/11:00pm 6.6 -2.4 2.7 76 1.6 WNW 39 50 21 27 983.9 984.0 4.2
22/10:30pm 7.0 -1.2 2.7 74 1.8 WNW 35 48 19 26 984.1 984.2 4.2
22/10:00pm 6.7 -0.9 2.8 76 1.7 WNW 32 43 17 23 984.3 984.4 4.2
22/09:30pm 6.3 -1.6 2.2 75 1.7 NW 33 46 18 25 984.8 984.8 4.2
22/09:00pm 7.2 -2.1 2.7 73 1.9 W 41 50 22 27 984.4 984.5 4.2
22/08:30pm 7.1 -2.6 3.9 80 1.4 W 44 56 24 30 983.9 984.0 4.2

Other Formats:

Comma delimited format used in spreadsheet applications
http://www.bom.gov.au/fwo/IDT60801/IDT60801.95967.axf

JavaScript Object Notation format (JSON) in row-major order
http://www.bom.gov.au/fwo/IDT60801/IDT60801.95967.json